sensor_id;sensor_type;location;lat;lon;timestamp;P1;durP1;ratioP1;P2;durP2;ratioP2
4420;SDS011;11824;51.178;13.546;2022-12-18T00:02:23;68.33;;;22.20;;
4420;SDS011;11824;51.178;13.546;2022-12-18T00:04:50;57.80;;;21.27;;
4420;SDS011;11824;51.178;13.546;2022-12-18T00:07:18;82.70;;;26.40;;
4420;SDS011;11824;51.178;13.546;2022-12-18T00:09:45;79.90;;;26.17;;
4420;SDS011;11824;51.178;13.546;2022-12-18T00:12:13;93.53;;;27.73;;
4420;SDS011;11824;51.178;13.546;2022-12-18T00:14:41;81.67;;;25.93;;
4420;SDS011;11824;51.178;13.546;2022-12-18T00:17:10;70.73;;;24.43;;
4420;SDS011;11824;51.178;13.546;2022-12-18T00:19:38;128.73;;;32.20;;
4420;SDS011;11824;51.178;13.546;2022-12-18T00:22:05;79.17;;;26.50;;
4420;SDS011;11824;51.178;13.546;2022-12-18T00:24:33;77.70;;;22.43;;
4420;SDS011;11824;51.178;13.546;2022-12-18T00:27:00;55.73;;;18.43;;
4420;SDS011;11824;51.178;13.546;2022-12-18T00:29:28;58.10;;;19.37;;
4420;SDS011;11824;51.178;13.546;2022-12-18T00:31:56;71.90;;;19.40;;
4420;SDS011;11824;51.178;13.546;2022-12-18T00:34:24;60.87;;;21.07;;
4420;SDS011;11824;51.178;13.546;2022-12-18T00:36:52;50.53;;;20.67;;
4420;SDS011;11824;51.178;13.546;2022-12-18T00:39:19;41.87;;;16.17;;
4420;SDS011;11824;51.178;13.546;2022-12-18T00:41:47;47.03;;;15.37;;
4420;SDS011;11824;51.178;13.546;2022-12-18T00:44:32;36.03;;;16.30;;
4420;SDS011;11824;51.178;13.546;2022-12-18T00:47:01;59.43;;;17.80;;
4420;SDS011;11824;51.178;13.546;2022-12-18T00:49:28;59.97;;;20.27;;
4420;SDS011;11824;51.178;13.546;2022-12-18T00:51:56;42.80;;;16.50;;
4420;SDS011;11824;51.178;13.546;2022-12-18T00:54:23;29.47;;;11.40;;
4420;SDS011;11824;51.178;13.546;2022-12-18T00:56:51;43.20;;;12.30;;
4420;SDS011;11824;51.178;13.546;2022-12-18T00:59:18;27.30;;;12.87;;
4420;SDS011;11824;51.178;13.546;2022-12-18T01:01:46;43.63;;;15.10;;
4420;SDS011;11824;51.178;13.546;2022-12-18T01:04:15;65.97;;;23.70;;
4420;SDS011;11824;51.178;13.546;2022-12-18T01:06:42;65.03;;;20.83;;
4420;SDS011;11824;51.178;13.546;2022-12-18T01:09:10;48.37;;;18.10;;
4420;SDS011;11824;51.178;13.546;2022-12-18T01:11:38;68.43;;;23.30;;
4420;SDS011;11824;51.178;13.546;2022-12-18T01:14:05;65.97;;;23.27;;
4420;SDS011;11824;51.178;13.546;2022-12-18T01:16:33;60.20;;;21.20;;
4420;SDS011;11824;51.178;13.546;2022-12-18T01:19:01;59.57;;;22.77;;
4420;SDS011;11824;51.178;13.546;2022-12-18T01:21:29;71.80;;;23.40;;
4420;SDS011;11824;51.178;13.546;2022-12-18T01:23:57;63.67;;;23.97;;
4420;SDS011;11824;51.178;13.546;2022-12-18T01:26:25;61.20;;;21.03;;
4420;SDS011;11824;51.178;13.546;2022-12-18T01:28:55;73.33;;;26.17;;
4420;SDS011;11824;51.178;13.546;2022-12-18T01:31:23;75.77;;;23.73;;
4420;SDS011;11824;51.178;13.546;2022-12-18T01:33:52;48.53;;;17.60;;
4420;SDS011;11824;51.178;13.546;2022-12-18T01:36:21;56.77;;;15.27;;
4420;SDS011;11824;51.178;13.546;2022-12-18T01:38:51;57.10;;;19.40;;
4420;SDS011;11824;51.178;13.546;2022-12-18T01:41:20;70.60;;;25.23;;
4420;SDS011;11824;51.178;13.546;2022-12-18T01:43:50;45.90;;;13.10;;
4420;SDS011;11824;51.178;13.546;2022-12-18T01:46:20;20.13;;;8.90;;
4420;SDS011;11824;51.178;13.546;2022-12-18T01:48:49;32.90;;;11.40;;
4420;SDS011;11824;51.178;13.546;2022-12-18T01:51:18;40.53;;;16.57;;
4420;SDS011;11824;51.178;13.546;2022-12-18T01:53:46;50.07;;;16.90;;
4420;SDS011;11824;51.178;13.546;2022-12-18T01:56:16;62.37;;;19.67;;
4420;SDS011;11824;51.178;13.546;2022-12-18T01:58:50;32.63;;;13.00;;
4420;SDS011;11824;51.178;13.546;2022-12-18T02:01:21;56.37;;;16.50;;
4420;SDS011;11824;51.178;13.546;2022-12-18T02:03:50;66.60;;;15.90;;
4420;SDS011;11824;51.178;13.546;2022-12-18T02:06:19;80.57;;;20.37;;
4420;SDS011;11824;51.178;13.546;2022-12-18T02:08:57;62.27;;;20.17;;
4420;SDS011;11824;51.178;13.546;2022-12-18T02:11:35;63.10;;;19.60;;
4420;SDS011;11824;51.178;13.546;2022-12-18T02:14:11;56.50;;;17.83;;
4420;SDS011;11824;51.178;13.546;2022-12-18T02:16:44;45.13;;;15.60;;
4420;SDS011;11824;51.178;13.546;2022-12-18T02:19:22;52.87;;;18.27;;
4420;SDS011;11824;51.178;13.546;2022-12-18T02:22:07;72.77;;;20.07;;
4420;SDS011;11824;51.178;13.546;2022-12-18T02:24:53;54.30;;;19.50;;
4420;SDS011;11824;51.178;13.546;2022-12-18T02:27:31;49.70;;;19.97;;
4420;SDS011;11824;51.178;13.546;2022-12-18T02:30:01;55.63;;;19.27;;
4420;SDS011;11824;51.178;13.546;2022-12-18T02:32:30;47.00;;;17.27;;
4420;SDS011;11824;51.178;13.546;2022-12-18T02:35:02;52.33;;;17.77;;
4420;SDS011;11824;51.178;13.546;2022-12-18T02:37:33;64.37;;;16.13;;
4420;SDS011;11824;51.178;13.546;2022-12-18T02:40:02;42.10;;;16.37;;
4420;SDS011;11824;51.178;13.546;2022-12-18T02:42:32;27.43;;;11.63;;
4420;SDS011;11824;51.178;13.546;2022-12-18T02:45:00;38.17;;;13.30;;
4420;SDS011;11824;51.178;13.546;2022-12-18T02:47:29;34.30;;;14.30;;
4420;SDS011;11824;51.178;13.546;2022-12-18T02:49:59;32.43;;;13.43;;
4420;SDS011;11824;51.178;13.546;2022-12-18T02:52:34;53.90;;;17.20;;
4420;SDS011;11824;51.178;13.546;2022-12-18T02:55:11;57.90;;;17.57;;
4420;SDS011;11824;51.178;13.546;2022-12-18T02:57:53;32.67;;;13.10;;
4420;SDS011;11824;51.178;13.546;2022-12-18T03:00:23;44.87;;;14.27;;
4420;SDS011;11824;51.178;13.546;2022-12-18T03:02:55;54.97;;;17.13;;
4420;SDS011;11824;51.178;13.546;2022-12-18T03:05:28;39.33;;;15.63;;
4420;SDS011;11824;51.178;13.546;2022-12-18T03:08:00;48.67;;;18.37;;
4420;SDS011;11824;51.178;13.546;2022-12-18T03:10:31;53.33;;;17.00;;
4420;SDS011;11824;51.178;13.546;2022-12-18T03:13:04;36.97;;;12.60;;
4420;SDS011;11824;51.178;13.546;2022-12-18T03:15:35;41.57;;;14.23;;
4420;SDS011;11824;51.178;13.546;2022-12-18T03:18:06;30.73;;;15.83;;
4420;SDS011;11824;51.178;13.546;2022-12-18T03:20:39;49.27;;;17.80;;
4420;SDS011;11824;51.178;13.546;2022-12-18T03:23:09;38.43;;;16.77;;
4420;SDS011;11824;51.178;13.546;2022-12-18T03:25:42;36.50;;;14.30;;
4420;SDS011;11824;51.178;13.546;2022-12-18T03:28:14;42.77;;;15.17;;
4420;SDS011;11824;51.178;13.546;2022-12-18T03:30:46;43.03;;;16.00;;
4420;SDS011;11824;51.178;13.546;2022-12-18T03:33:18;34.37;;;13.30;;
4420;SDS011;11824;51.178;13.546;2022-12-18T03:35:50;34.77;;;13.13;;
4420;SDS011;11824;51.178;13.546;2022-12-18T03:38:18;38.47;;;12.20;;
4420;SDS011;11824;51.178;13.546;2022-12-18T03:40:50;26.27;;;11.80;;
4420;SDS011;11824;51.178;13.546;2022-12-18T03:43:28;38.20;;;14.27;;
4420;SDS011;11824;51.178;13.546;2022-12-18T03:46:06;39.03;;;16.30;;
4420;SDS011;11824;51.178;13.546;2022-12-18T03:48:41;50.93;;;16.00;;
4420;SDS011;11824;51.178;13.546;2022-12-18T03:51:17;43.60;;;14.70;;
4420;SDS011;11824;51.178;13.546;2022-12-18T03:53:51;56.17;;;17.77;;
4420;SDS011;11824;51.178;13.546;2022-12-18T03:56:23;51.50;;;18.00;;
4420;SDS011;11824;51.178;13.546;2022-12-18T03:58:55;26.53;;;11.10;;
4420;SDS011;11824;51.178;13.546;2022-12-18T04:01:26;37.67;;;10.47;;
4420;SDS011;11824;51.178;13.546;2022-12-18T04:03:58;52.43;;;18.20;;
4420;SDS011;11824;51.178;13.546;2022-12-18T04:06:27;61.37;;;14.97;;
4420;SDS011;11824;51.178;13.546;2022-12-18T04:08:56;38.10;;;14.30;;
4420;SDS011;11824;51.178;13.546;2022-12-18T04:11:24;36.30;;;14.40;;
4420;SDS011;11824;51.178;13.546;2022-12-18T04:13:52;38.73;;;14.43;;
4420;SDS011;11824;51.178;13.546;2022-12-18T04:16:23;56.30;;;16.80;;
4420;SDS011;11824;51.178;13.546;2022-12-18T04:18:51;43.13;;;13.27;;
4420;SDS011;11824;51.178;13.546;2022-12-18T04:21:18;22.80;;;11.53;;
4420;SDS011;11824;51.178;13.546;2022-12-18T04:23:46;70.03;;;23.13;;
4420;SDS011;11824;51.178;13.546;2022-12-18T04:26:13;53.30;;;18.07;;
4420;SDS011;11824;51.178;13.546;2022-12-18T04:28:41;33.07;;;15.40;;
4420;SDS011;11824;51.178;13.546;2022-12-18T04:31:09;43.10;;;14.13;;
4420;SDS011;11824;51.178;13.546;2022-12-18T04:33:37;34.07;;;14.20;;
4420;SDS011;11824;51.178;13.546;2022-12-18T04:36:05;39.70;;;15.00;;
4420;SDS011;11824;51.178;13.546;2022-12-18T04:38:33;34.77;;;13.57;;
4420;SDS011;11824;51.178;13.546;2022-12-18T04:41:00;44.73;;;14.50;;
4420;SDS011;11824;51.178;13.546;2022-12-18T04:43:28;60.80;;;13.77;;
4420;SDS011;11824;51.178;13.546;2022-12-18T04:46:00;77.70;;;23.67;;
4420;SDS011;11824;51.178;13.546;2022-12-18T04:48:30;53.73;;;21.83;;
4420;SDS011;11824;51.178;13.546;2022-12-18T04:50:58;26.87;;;13.23;;
4420;SDS011;11824;51.178;13.546;2022-12-18T04:53:25;47.83;;;17.30;;
4420;SDS011;11824;51.178;13.546;2022-12-18T04:56:01;45.53;;;15.60;;
4420;SDS011;11824;51.178;13.546;2022-12-18T04:58:30;29.97;;;12.77;;
4420;SDS011;11824;51.178;13.546;2022-12-18T05:00:58;35.93;;;13.07;;
4420;SDS011;11824;51.178;13.546;2022-12-18T05:03:26;36.40;;;15.33;;
4420;SDS011;11824;51.178;13.546;2022-12-18T05:05:54;53.47;;;20.30;;
4420;SDS011;11824;51.178;13.546;2022-12-18T05:08:22;32.67;;;12.23;;
4420;SDS011;11824;51.178;13.546;2022-12-18T05:10:54;36.13;;;13.50;;
4420;SDS011;11824;51.178;13.546;2022-12-18T05:13:25;29.03;;;12.40;;
4420;SDS011;11824;51.178;13.546;2022-12-18T05:15:52;26.53;;;9.67;;
4420;SDS011;11824;51.178;13.546;2022-12-18T05:18:20;47.70;;;10.20;;
4420;SDS011;11824;51.178;13.546;2022-12-18T05:20:48;24.67;;;10.33;;
4420;SDS011;11824;51.178;13.546;2022-12-18T05:23:17;31.27;;;11.70;;
4420;SDS011;11824;51.178;13.546;2022-12-18T05:25:46;35.43;;;13.13;;
4420;SDS011;11824;51.178;13.546;2022-12-18T05:28:16;27.37;;;11.77;;
4420;SDS011;11824;51.178;13.546;2022-12-18T05:30:46;22.37;;;10.27;;
4420;SDS011;11824;51.178;13.546;2022-12-18T05:33:15;31.20;;;13.20;;
4420;SDS011;11824;51.178;13.546;2022-12-18T05:35:42;23.13;;;11.30;;
4420;SDS011;11824;51.178;13.546;2022-12-18T05:38:10;22.37;;;9.23;;
4420;SDS011;11824;51.178;13.546;2022-12-18T05:40:41;30.07;;;11.60;;
4420;SDS011;11824;51.178;13.546;2022-12-18T05:43:09;31.43;;;11.50;;
4420;SDS011;11824;51.178;13.546;2022-12-18T05:45:43;32.60;;;12.90;;
4420;SDS011;11824;51.178;13.546;2022-12-18T05:48:10;27.43;;;7.67;;
4420;SDS011;11824;51.178;13.546;2022-12-18T05:50:39;20.80;;;10.57;;
4420;SDS011;11824;51.178;13.546;2022-12-18T05:53:07;32.73;;;11.60;;
4420;SDS011;11824;51.178;13.546;2022-12-18T05:55:36;25.10;;;8.70;;
4420;SDS011;11824;51.178;13.546;2022-12-18T05:58:06;22.63;;;9.63;;
4420;SDS011;11824;51.178;13.546;2022-12-18T06:00:35;32.63;;;9.93;;
4420;SDS011;11824;51.178;13.546;2022-12-18T06:03:05;29.87;;;11.83;;
4420;SDS011;11824;51.178;13.546;2022-12-18T06:05:34;27.60;;;11.67;;
4420;SDS011;11824;51.178;13.546;2022-12-18T06:08:02;22.80;;;8.47;;
4420;SDS011;11824;51.178;13.546;2022-12-18T06:10:30;30.27;;;12.13;;
4420;SDS011;11824;51.178;13.546;2022-12-18T06:12:58;37.20;;;10.10;;
4420;SDS011;11824;51.178;13.546;2022-12-18T06:15:26;15.53;;;8.60;;
4420;SDS011;11824;51.178;13.546;2022-12-18T06:17:54;34.20;;;13.57;;
4420;SDS011;11824;51.178;13.546;2022-12-18T06:20:21;28.87;;;11.40;;
4420;SDS011;11824;51.178;13.546;2022-12-18T06:22:48;35.37;;;11.77;;
4420;SDS011;11824;51.178;13.546;2022-12-18T06:25:16;36.97;;;12.53;;
4420;SDS011;11824;51.178;13.546;2022-12-18T06:27:44;23.27;;;10.63;;
4420;SDS011;11824;51.178;13.546;2022-12-18T06:30:13;31.73;;;11.33;;
4420;SDS011;11824;51.178;13.546;2022-12-18T06:32:42;20.63;;;8.17;;
4420;SDS011;11824;51.178;13.546;2022-12-18T06:35:13;42.10;;;7.03;;
4420;SDS011;11824;51.178;13.546;2022-12-18T06:37:41;23.70;;;9.53;;
4420;SDS011;11824;51.178;13.546;2022-12-18T06:40:09;25.50;;;12.87;;
4420;SDS011;11824;51.178;13.546;2022-12-18T06:42:36;27.93;;;12.20;;
4420;SDS011;11824;51.178;13.546;2022-12-18T06:45:04;24.03;;;10.57;;
4420;SDS011;11824;51.178;13.546;2022-12-18T06:47:32;23.90;;;10.60;;
4420;SDS011;11824;51.178;13.546;2022-12-18T06:50:00;26.40;;;9.70;;
4420;SDS011;11824;51.178;13.546;2022-12-18T06:52:28;16.60;;;8.77;;
4420;SDS011;11824;51.178;13.546;2022-12-18T06:54:57;26.83;;;8.50;;
4420;SDS011;11824;51.178;13.546;2022-12-18T06:57:25;20.83;;;7.27;;
4420;SDS011;11824;51.178;13.546;2022-12-18T06:59:52;23.97;;;9.67;;
4420;SDS011;11824;51.178;13.546;2022-12-18T07:02:19;24.90;;;10.57;;
4420;SDS011;11824;51.178;13.546;2022-12-18T07:04:47;9.37;;;5.00;;
4420;SDS011;11824;51.178;13.546;2022-12-18T07:07:16;5.87;;;3.77;;
4420;SDS011;11824;51.178;13.546;2022-12-18T07:09:44;25.60;;;9.13;;
4420;SDS011;11824;51.178;13.546;2022-12-18T07:12:12;31.10;;;11.50;;
4420;SDS011;11824;51.178;13.546;2022-12-18T07:14:39;23.10;;;9.53;;
4420;SDS011;11824;51.178;13.546;2022-12-18T07:17:07;31.80;;;10.80;;
4420;SDS011;11824;51.178;13.546;2022-12-18T07:19:35;32.17;;;10.63;;
4420;SDS011;11824;51.178;13.546;2022-12-18T07:22:02;24.50;;;12.50;;
4420;SDS011;11824;51.178;13.546;2022-12-18T07:24:30;19.17;;;9.67;;
4420;SDS011;11824;51.178;13.546;2022-12-18T07:26:59;29.20;;;11.90;;
4420;SDS011;11824;51.178;13.546;2022-12-18T07:29:27;40.70;;;8.87;;
4420;SDS011;11824;51.178;13.546;2022-12-18T07:31:55;30.67;;;13.80;;
4420;SDS011;11824;51.178;13.546;2022-12-18T07:34:22;26.43;;;9.40;;
4420;SDS011;11824;51.178;13.546;2022-12-18T07:36:50;26.20;;;9.63;;
4420;SDS011;11824;51.178;13.546;2022-12-18T07:39:18;22.03;;;8.60;;
4420;SDS011;11824;51.178;13.546;2022-12-18T07:41:46;25.73;;;10.67;;
4420;SDS011;11824;51.178;13.546;2022-12-18T07:44:34;24.40;;;10.57;;
4420;SDS011;11824;51.178;13.546;2022-12-18T07:47:01;21.40;;;11.23;;
4420;SDS011;11824;51.178;13.546;2022-12-18T07:49:36;29.30;;;10.40;;
4420;SDS011;11824;51.178;13.546;2022-12-18T07:52:04;26.90;;;8.43;;
4420;SDS011;11824;51.178;13.546;2022-12-18T07:54:31;29.90;;;11.77;;
4420;SDS011;11824;51.178;13.546;2022-12-18T07:57:00;50.13;;;16.27;;
4420;SDS011;11824;51.178;13.546;2022-12-18T07:59:27;34.13;;;13.00;;
4420;SDS011;11824;51.178;13.546;2022-12-18T08:01:54;33.50;;;14.60;;
4420;SDS011;11824;51.178;13.546;2022-12-18T08:04:22;65.63;;;20.43;;
4420;SDS011;11824;51.178;13.546;2022-12-18T08:06:49;28.67;;;13.07;;
4420;SDS011;11824;51.178;13.546;2022-12-18T08:09:17;38.93;;;14.47;;
4420;SDS011;11824;51.178;13.546;2022-12-18T08:11:44;42.33;;;13.10;;
4420;SDS011;11824;51.178;13.546;2022-12-18T08:14:13;32.80;;;12.70;;
4420;SDS011;11824;51.178;13.546;2022-12-18T08:16:40;44.03;;;14.27;;
4420;SDS011;11824;51.178;13.546;2022-12-18T08:19:08;39.87;;;13.83;;
4420;SDS011;11824;51.178;13.546;2022-12-18T08:21:36;46.93;;;17.40;;
4420;SDS011;11824;51.178;13.546;2022-12-18T08:24:04;31.67;;;12.57;;
4420;SDS011;11824;51.178;13.546;2022-12-18T08:26:32;44.20;;;13.73;;
4420;SDS011;11824;51.178;13.546;2022-12-18T08:29:00;47.10;;;12.40;;
4420;SDS011;11824;51.178;13.546;2022-12-18T08:31:29;40.90;;;12.83;;
4420;SDS011;11824;51.178;13.546;2022-12-18T08:33:57;34.37;;;14.50;;
4420;SDS011;11824;51.178;13.546;2022-12-18T08:36:24;40.07;;;14.80;;
4420;SDS011;11824;51.178;13.546;2022-12-18T08:38:52;43.87;;;17.57;;
4420;SDS011;11824;51.178;13.546;2022-12-18T08:41:20;44.30;;;16.30;;
4420;SDS011;11824;51.178;13.546;2022-12-18T08:43:48;38.57;;;14.60;;
4420;SDS011;11824;51.178;13.546;2022-12-18T08:46:35;32.17;;;13.87;;
4420;SDS011;11824;51.178;13.546;2022-12-18T08:49:04;32.87;;;12.10;;
4420;SDS011;11824;51.178;13.546;2022-12-18T08:51:33;36.67;;;13.30;;
4420;SDS011;11824;51.178;13.546;2022-12-18T08:54:01;35.13;;;13.60;;
4420;SDS011;11824;51.178;13.546;2022-12-18T08:56:31;37.30;;;14.33;;
4420;SDS011;11824;51.178;13.546;2022-12-18T08:58:59;34.33;;;14.33;;
4420;SDS011;11824;51.178;13.546;2022-12-18T09:01:28;42.37;;;14.67;;
4420;SDS011;11824;51.178;13.546;2022-12-18T09:03:57;34.97;;;14.20;;
4420;SDS011;11824;51.178;13.546;2022-12-18T09:06:25;40.50;;;16.50;;
4420;SDS011;11824;51.178;13.546;2022-12-18T09:08:53;33.47;;;14.87;;
4420;SDS011;11824;51.178;13.546;2022-12-18T09:11:21;42.07;;;16.87;;
4420;SDS011;11824;51.178;13.546;2022-12-18T09:13:50;32.10;;;14.47;;
4420;SDS011;11824;51.178;13.546;2022-12-18T09:16:18;29.03;;;12.50;;
4420;SDS011;11824;51.178;13.546;2022-12-18T09:18:46;44.57;;;15.50;;
4420;SDS011;11824;51.178;13.546;2022-12-18T09:21:15;57.70;;;21.50;;
4420;SDS011;11824;51.178;13.546;2022-12-18T09:23:48;36.20;;;15.90;;
4420;SDS011;11824;51.178;13.546;2022-12-18T09:26:16;55.77;;;19.57;;
4420;SDS011;11824;51.178;13.546;2022-12-18T09:28:44;54.67;;;22.33;;
4420;SDS011;11824;51.178;13.546;2022-12-18T09:31:12;52.77;;;20.00;;
4420;SDS011;11824;51.178;13.546;2022-12-18T09:33:41;44.13;;;18.77;;
4420;SDS011;11824;51.178;13.546;2022-12-18T09:36:11;51.20;;;17.27;;
4420;SDS011;11824;51.178;13.546;2022-12-18T09:38:41;40.67;;;16.53;;
4420;SDS011;11824;51.178;13.546;2022-12-18T09:41:14;48.33;;;17.07;;
4420;SDS011;11824;51.178;13.546;2022-12-18T09:43:51;41.10;;;17.40;;
4420;SDS011;11824;51.178;13.546;2022-12-18T09:46:26;29.10;;;11.07;;
4420;SDS011;11824;51.178;13.546;2022-12-18T09:48:56;49.50;;;15.47;;
4420;SDS011;11824;51.178;13.546;2022-12-18T09:51:28;53.00;;;21.90;;
4420;SDS011;11824;51.178;13.546;2022-12-18T09:54:01;58.03;;;20.40;;
4420;SDS011;11824;51.178;13.546;2022-12-18T09:56:35;46.67;;;18.70;;
4420;SDS011;11824;51.178;13.546;2022-12-18T09:59:05;55.30;;;21.20;;
4420;SDS011;11824;51.178;13.546;2022-12-18T10:01:41;46.80;;;21.37;;
4420;SDS011;11824;51.178;13.546;2022-12-18T10:04:12;65.07;;;19.80;;
4420;SDS011;11824;51.178;13.546;2022-12-18T10:06:42;45.90;;;19.00;;
4420;SDS011;11824;51.178;13.546;2022-12-18T10:09:16;48.77;;;16.47;;
4420;SDS011;11824;51.178;13.546;2022-12-18T10:11:52;48.53;;;17.80;;
4420;SDS011;11824;51.178;13.546;2022-12-18T10:14:30;43.80;;;17.60;;
4420;SDS011;11824;51.178;13.546;2022-12-18T10:17:09;43.13;;;18.63;;
4420;SDS011;11824;51.178;13.546;2022-12-18T10:19:47;43.30;;;21.70;;
4420;SDS011;11824;51.178;13.546;2022-12-18T10:22:22;73.07;;;27.07;;
4420;SDS011;11824;51.178;13.546;2022-12-18T10:25:17;61.80;;;25.47;;
4420;SDS011;11824;51.178;13.546;2022-12-18T10:27:48;64.00;;;24.60;;
4420;SDS011;11824;51.178;13.546;2022-12-18T10:30:20;59.20;;;25.07;;
4420;SDS011;11824;51.178;13.546;2022-12-18T10:32:49;90.70;;;32.70;;
4420;SDS011;11824;51.178;13.546;2022-12-18T10:35:18;80.90;;;29.20;;
4420;SDS011;11824;51.178;13.546;2022-12-18T10:38:04;73.97;;;32.50;;
4420;SDS011;11824;51.178;13.546;2022-12-18T10:40:50;67.53;;;23.67;;
4420;SDS011;11824;51.178;13.546;2022-12-18T10:43:22;53.30;;;24.07;;
4420;SDS011;11824;51.178;13.546;2022-12-18T10:45:59;72.43;;;26.80;;
4420;SDS011;11824;51.178;13.546;2022-12-18T10:48:28;53.17;;;21.53;;
4420;SDS011;11824;51.178;13.546;2022-12-18T10:50:57;54.93;;;21.73;;
4420;SDS011;11824;51.178;13.546;2022-12-18T10:53:41;64.27;;;31.67;;
4420;SDS011;11824;51.178;13.546;2022-12-18T10:56:19;74.60;;;28.90;;
4420;SDS011;11824;51.178;13.546;2022-12-18T10:58:55;67.70;;;26.60;;
4420;SDS011;11824;51.178;13.546;2022-12-18T11:01:24;55.97;;;21.37;;
4420;SDS011;11824;51.178;13.546;2022-12-18T11:03:59;58.83;;;21.47;;
4420;SDS011;11824;51.178;13.546;2022-12-18T11:06:35;56.03;;;21.07;;
4420;SDS011;11824;51.178;13.546;2022-12-18T11:09:22;62.90;;;22.70;;
4420;SDS011;11824;51.178;13.546;2022-12-18T11:11:52;82.63;;;26.07;;
4420;SDS011;11824;51.178;13.546;2022-12-18T11:14:22;63.60;;;22.10;;
4420;SDS011;11824;51.178;13.546;2022-12-18T11:16:52;61.77;;;24.20;;
4420;SDS011;11824;51.178;13.546;2022-12-18T11:19:41;68.80;;;24.67;;
4420;SDS011;11824;51.178;13.546;2022-12-18T11:22:17;43.93;;;18.77;;
4420;SDS011;11824;51.178;13.546;2022-12-18T11:24:52;69.70;;;21.53;;
4420;SDS011;11824;51.178;13.546;2022-12-18T11:27:47;48.03;;;20.20;;
4420;SDS011;11824;51.178;13.546;2022-12-18T11:30:20;36.37;;;14.73;;
4420;SDS011;11824;51.178;13.546;2022-12-18T11:32:49;34.30;;;16.40;;
4420;SDS011;11824;51.178;13.546;2022-12-18T11:35:30;54.97;;;18.97;;
4420;SDS011;11824;51.178;13.546;2022-12-18T11:38:04;41.43;;;19.43;;
4420;SDS011;11824;51.178;13.546;2022-12-18T11:40:40;57.93;;;22.13;;
4420;SDS011;11824;51.178;13.546;2022-12-18T11:43:13;47.43;;;19.93;;
4420;SDS011;11824;51.178;13.546;2022-12-18T11:45:47;46.77;;;19.43;;
4420;SDS011;11824;51.178;13.546;2022-12-18T11:48:22;43.57;;;19.10;;
4420;SDS011;11824;51.178;13.546;2022-12-18T11:50:53;49.57;;;19.13;;
4420;SDS011;11824;51.178;13.546;2022-12-18T11:53:23;43.80;;;18.00;;
4420;SDS011;11824;51.178;13.546;2022-12-18T11:55:58;40.60;;;18.87;;
4420;SDS011;11824;51.178;13.546;2022-12-18T11:58:37;46.23;;;19.43;;
4420;SDS011;11824;51.178;13.546;2022-12-18T12:01:23;41.70;;;17.27;;
4420;SDS011;11824;51.178;13.546;2022-12-18T12:07:17;37.10;;;17.23;;
4420;SDS011;11824;51.178;13.546;2022-12-18T12:09:52;37.20;;;16.90;;
4420;SDS011;11824;51.178;13.546;2022-12-18T12:12:30;50.73;;;19.97;;
4420;SDS011;11824;51.178;13.546;2022-12-18T12:15:19;56.83;;;20.20;;
4420;SDS011;11824;51.178;13.546;2022-12-18T12:17:57;51.47;;;19.70;;
4420;SDS011;11824;51.178;13.546;2022-12-18T12:20:42;47.37;;;20.57;;
4420;SDS011;11824;51.178;13.546;2022-12-18T12:23:37;53.53;;;18.00;;
4420;SDS011;11824;51.178;13.546;2022-12-18T12:26:13;43.50;;;17.40;;
4420;SDS011;11824;51.178;13.546;2022-12-18T12:28:55;58.53;;;20.43;;
4420;SDS011;11824;51.178;13.546;2022-12-18T12:31:34;56.43;;;21.60;;
4420;SDS011;11824;51.178;13.546;2022-12-18T12:34:16;71.63;;;20.87;;
4420;SDS011;11824;51.178;13.546;2022-12-18T12:37:06;54.37;;;19.27;;
4420;SDS011;11824;51.178;13.546;2022-12-18T12:39:44;53.37;;;19.13;;
4420;SDS011;11824;51.178;13.546;2022-12-18T12:42:18;48.87;;;19.67;;
4420;SDS011;11824;51.178;13.546;2022-12-18T12:45:16;41.53;;;16.93;;
4420;SDS011;11824;51.178;13.546;2022-12-18T12:47:48;44.57;;;16.97;;
4420;SDS011;11824;51.178;13.546;2022-12-18T12:50:18;56.57;;;19.93;;
4420;SDS011;11824;51.178;13.546;2022-12-18T12:52:48;43.03;;;16.87;;
4420;SDS011;11824;51.178;13.546;2022-12-18T12:55:19;46.40;;;17.57;;
4420;SDS011;11824;51.178;13.546;2022-12-18T12:57:52;37.53;;;14.13;;
4420;SDS011;11824;51.178;13.546;2022-12-18T13:00:25;43.93;;;17.30;;
4420;SDS011;11824;51.178;13.546;2022-12-18T13:02:59;51.33;;;20.57;;
4420;SDS011;11824;51.178;13.546;2022-12-18T13:05:34;45.00;;;17.63;;
4420;SDS011;11824;51.178;13.546;2022-12-18T13:08:12;51.77;;;21.27;;
4420;SDS011;11824;51.178;13.546;2022-12-18T13:10:52;40.67;;;17.40;;
4420;SDS011;11824;51.178;13.546;2022-12-18T13:13:48;45.50;;;18.43;;
4420;SDS011;11824;51.178;13.546;2022-12-18T13:16:18;57.30;;;20.10;;
4420;SDS011;11824;51.178;13.546;2022-12-18T13:18:50;50.20;;;19.63;;
4420;SDS011;11824;51.178;13.546;2022-12-18T13:21:21;49.50;;;19.10;;
4420;SDS011;11824;51.178;13.546;2022-12-18T13:23:52;56.27;;;18.70;;
4420;SDS011;11824;51.178;13.546;2022-12-18T13:26:30;52.67;;;17.70;;
4420;SDS011;11824;51.178;13.546;2022-12-18T13:29:00;37.67;;;14.40;;
4420;SDS011;11824;51.178;13.546;2022-12-18T13:34:34;48.30;;;17.37;;
4420;SDS011;11824;51.178;13.546;2022-12-18T13:43:23;43.27;;;15.40;;
4420;SDS011;11824;51.178;13.546;2022-12-18T13:46:04;38.13;;;14.07;;
4420;SDS011;11824;51.178;13.546;2022-12-18T13:48:43;44.20;;;17.40;;
4420;SDS011;11824;51.178;13.546;2022-12-18T13:51:22;35.37;;;14.20;;
4420;SDS011;11824;51.178;13.546;2022-12-18T13:53:51;47.33;;;15.30;;
4420;SDS011;11824;51.178;13.546;2022-12-18T13:56:21;47.27;;;18.00;;
4420;SDS011;11824;51.178;13.546;2022-12-18T13:59:11;37.47;;;15.07;;
4420;SDS011;11824;51.178;13.546;2022-12-18T14:02:05;42.90;;;15.70;;
4420;SDS011;11824;51.178;13.546;2022-12-18T14:05:28;46.20;;;17.67;;
4420;SDS011;11824;51.178;13.546;2022-12-18T14:08:20;36.57;;;14.17;;
4420;SDS011;11824;51.178;13.546;2022-12-18T14:14:32;41.57;;;15.77;;
4420;SDS011;11824;51.178;13.546;2022-12-18T14:17:00;45.93;;;16.43;;
4420;SDS011;11824;51.178;13.546;2022-12-18T14:19:28;43.83;;;17.17;;
4420;SDS011;11824;51.178;13.546;2022-12-18T14:21:55;38.23;;;17.77;;
4420;SDS011;11824;51.178;13.546;2022-12-18T14:24:23;53.20;;;16.20;;
4420;SDS011;11824;51.178;13.546;2022-12-18T14:26:50;45.73;;;17.47;;
4420;SDS011;11824;51.178;13.546;2022-12-18T14:29:19;52.03;;;16.60;;
4420;SDS011;11824;51.178;13.546;2022-12-18T14:32:05;64.33;;;20.73;;
4420;SDS011;11824;51.178;13.546;2022-12-18T14:34:42;44.07;;;18.20;;
4420;SDS011;11824;51.178;13.546;2022-12-18T14:37:10;49.00;;;16.37;;
4420;SDS011;11824;51.178;13.546;2022-12-18T14:39:39;41.67;;;15.90;;
4420;SDS011;11824;51.178;13.546;2022-12-18T14:42:17;40.60;;;14.83;;
4420;SDS011;11824;51.178;13.546;2022-12-18T14:44:44;39.70;;;14.93;;
4420;SDS011;11824;51.178;13.546;2022-12-18T14:47:31;47.83;;;18.83;;
4420;SDS011;11824;51.178;13.546;2022-12-18T14:49:59;39.33;;;14.70;;
4420;SDS011;11824;51.178;13.546;2022-12-18T14:52:27;36.70;;;14.17;;
4420;SDS011;11824;51.178;13.546;2022-12-18T14:54:58;33.90;;;16.00;;
4420;SDS011;11824;51.178;13.546;2022-12-18T14:57:27;41.07;;;14.47;;
4420;SDS011;11824;51.178;13.546;2022-12-18T15:00:03;33.87;;;13.53;;
4420;SDS011;11824;51.178;13.546;2022-12-18T15:02:34;63.40;;;21.30;;
4420;SDS011;11824;51.178;13.546;2022-12-18T15:05:04;47.63;;;17.13;;
4420;SDS011;11824;51.178;13.546;2022-12-18T15:07:42;37.93;;;16.53;;